Data for 10/03/2016

Time Sea-Level Adjusted Pressure Absolute Pressure Temperature Relative Humidity Dew Point   
(mb) (inHg) (mb) (inHg) (C) (F) (%) (C) (F)
00:05 1012 29.88 841 24.83 8.3 46.9 92 7 44.6
00:10 1012 29.88 841 24.83 8.2 46.8 92 7 44.5
00:15 1012 29.88 841 24.83 8.2 46.7 92 6.9 44.5
00:20 1012 29.88 841 24.83 8.1 46.7 92 6.9 44.4
00:25 1012 29.88 841 24.83 8.2 46.7 92 6.9 44.5
00:30 1011 29.85 841 24.83 8.1 46.7 92 6.9 44.5
00:35 1011 29.85 840 24.81 8.1 46.6 92 6.9 44.5
00:40 1011 29.85 840 24.81 8.1 46.6 92 6.9 44.4
00:45 1011 29.85 840 24.81 8 46.5 92 6.8 44.2
00:50 1011 29.85 840 24.81 8 46.4 92 6.8 44.2
00:55 1011 29.85 840 24.81 8 46.4 91 6.7 44
01:00 1011 29.85 840 24.81 7.9 46.3 89 6.2 43.2
01:05 1011 29.85 840 24.81 7.8 46.1 87 5.7 42.3
01:10 1011 29.85 840 24.81 7.8 46 87 5.8 42.4
01:15 1010 29.83 840 24.81 7.6 45.7 87 5.6 42
01:20 1010 29.83 839 24.78 7.7 45.8 84 5.1 41.2
01:25 1010 29.83 840 24.81 7.9 46.1 83 5.1 41.2
01:30 1011 29.85 840 24.81 7.9 46.2 83 5.2 41.4
01:35 1010 29.83 840 24.81 7.9 46.2 83 5.1 41.2
01:40 1010 29.83 839 24.78 7.9 46.2 79 4.5 40.1
01:45 1010 29.83 839 24.78 8.1 46.5 81 5 41
01:50 1010 29.83 839 24.78 7.9 46.1 82 5 40.9
01:55 1010 29.83 839 24.78 7.7 45.9 82 4.9 40.8
02:00 1010 29.83 839 24.78 7.6 45.7 82 4.8 40.6
02:05 1010 29.83 839 24.78 7.6 45.7 80 4.5 40
02:10 1010 29.83 839 24.78 7.8 46 80 4.6 40.4
02:15 1010 29.83 839 24.78 7.9 46.1 80 4.7 40.4
02:20 1010 29.83 839 24.78 7.9 46.3 81 4.8 40.6
02:25 1010 29.83 839 24.78 8 46.4 79 4.5 40.2
02:30 1010 29.83 839 24.78 8 46.3 78 4.4 39.9
02:35 1010 29.83 839 24.78 7.9 46.1 79 4.5 40
02:40 1009 29.8 839 24.78 7.8 46 79 4.4 39.8
02:45 1009 29.8 839 24.78 7.8 46 78 4.2 39.5
02:50 1009 29.8 839 24.78 7.8 46 78 4.2 39.5
02:55 1009 29.8 839 24.78 7.8 46.1 78 4.2 39.6
03:00 1009 29.8 839 24.78 7.8 46.1 79 4.3 39.8
03:05 1010 29.83 839 24.78 7.9 46.1 79 4.4 39.9
03:10 1010 29.83 839 24.78 7.9 46.2 83 5.1 41.2
03:15 1009 29.8 839 24.78 7.8 46 86 5.6 42
03:20 1009 29.8 839 24.78 7.6 45.7 88 5.7 42.3
03:25 1009 29.8 839 24.78 7.6 45.6 88 5.7 42.3
03:30 1009 29.8 839 24.78 7.5 45.5 89 5.8 42.5
03:35 1009 29.8 839 24.78 7.4 45.4 90 5.8 42.5
03:40 1009 29.8 838 24.75 7.5 45.4 90 5.9 42.7
03:45 1009 29.8 838 24.75 7.5 45.4 90 5.9 42.7
03:50 1009 29.8 838 24.75 7.4 45.4 90 5.9 42.6
03:55 1009 29.8 838 24.75 7.4 45.3 90 5.9 42.6
04:00 1009 29.8 838 24.75 7.3 45.2 91 5.9 42.6
04:05 1009 29.8 838 24.75 7.3 45.2 91 5.9 42.6
04:10 1009 29.8 838 24.75 7.4 45.2 91 5.9 42.7
04:15 1009 29.8 838 24.75 7.3 45.1 90 5.8 42.5
04:20 1009 29.8 838 24.75 7.1 44.8 90 5.5 41.9
04:25 1009 29.8 838 24.75 7.2 44.9 89 5.5 41.8
04:30 1009 29.8 838 24.75 7.1 44.8 88 5.3 41.6
04:35 1009 29.8 838 24.75 7.1 44.8 88 5.3 41.5
04:40 1009 29.8 838 24.75 7.1 44.8 87 5.1 41.2
04:45 1009 29.8 838 24.75 7.2 44.9 87 5.2 41.3
04:50 1009 29.8 838 24.75 7.3 45.2 87 5.3 41.6
04:55 1009 29.8 838 24.75 7.3 45.2 87 5.3 41.5
05:00 1009 29.8 838 24.75 7.3 45.2 88 5.5 41.9
05:05 1009 29.8 838 24.75 7.1 44.9 89 5.5 41.9
05:10 1009 29.8 838 24.75 7 44.7 90 5.5 41.9
05:15 1009 29.8 838 24.75 7.1 44.8 90 5.5 42
05:20 1009 29.8 838 24.75 7.2 44.9 90 5.6 42.1
05:25 1009 29.8 838 24.75 7.2 44.9 89 5.5 42
05:30 1009 29.8 838 24.75 7.2 44.9 89 5.5 41.9
05:35 1009 29.8 838 24.75 7.1 44.7 90 5.5 41.8
05:40 1009 29.8 838 24.75 7 44.5 90 5.5 41.8
05:45 1009 29.8 838 24.75 7 44.6 90 5.5 41.9
05:50 1009 29.8 838 24.75 7.1 44.8 90 5.6 42
05:55 1009 29.8 838 24.75 7.2 44.9 90 5.6 42
06:00 1009 29.8 838 24.75 7.1 44.7 89 5.4 41.8
06:05 1009 29.8 838 24.75 6.9 44.4 90 5.3 41.5
06:10 1009 29.8 838 24.75 6.7 44.1 90 5.2 41.4
06:15 1009 29.8 838 24.75 6.7 44.1 90 5.2 41.4
06:20 1009 29.8 838 24.75 6.9 44.5 89 5.2 41.4
06:25 1008 29.77 838 24.75 7 44.6 89 5.3 41.5
06:30 1008 29.77 838 24.75 7.1 44.7 89 5.4 41.8
06:35 1009 29.8 838 24.75 7.2 44.9 89 5.4 41.8
06:40 1009 29.8 838 24.75 7.2 44.9 89 5.5 41.9
06:45 1009 29.8 838 24.75 7.4 45.3 88 5.6 42.1
06:50 1009 29.8 838 24.75 7.5 45.5 88 5.7 42.2
06:55 1008 29.77 838 24.75 7.5 45.6 88 5.7 42.2
07:00 1008 29.77 838 24.75 7.6 45.6 88 5.7 42.2
07:05 1008 29.77 837 24.72 7.7 45.8 88 5.7 42.3
07:10 1008 29.77 837 24.72 7.7 45.9 88 5.9 42.6
07:15 1008 29.77 837 24.72 7.7 45.8 89 6 42.8
07:20 1008 29.77 837 24.72 7.6 45.6 90 6 42.8
07:25 1008 29.77 837 24.72 7.6 45.7 90 6.1 43
07:30 1008 29.77 837 24.72 7.4 45.4 90 5.9 42.6
07:35 1008 29.77 837 24.72 7.2 45 91 5.8 42.5
07:40 1008 29.77 837 24.72 7.3 45.1 91 5.8 42.5
07:45 1008 29.77 837 24.72 7.2 45 91 5.8 42.5
07:50 1008 29.77 837 24.72 7.3 45.1 91 5.9 42.6
07:55 1008 29.77 837 24.72 7.3 45.1 91 5.8 42.5
08:00 1008 29.77 837 24.72 7.2 45 91 5.8 42.5
08:05 1008 29.77 837 24.72 7.2 44.9 91 5.8 42.4
08:10 1008 29.77 837 24.72 7.1 44.8 91 5.7 42.3
08:15 1008 29.77 837 24.72 7.1 44.7 91 5.6 42.1
08:20 1008 29.77 837 24.72 7.1 44.7 90 5.6 42.1
08:25 1008 29.77 837 24.72 7.1 44.7 90 5.6 42
08:30 1008 29.77 837 24.72 7.1 44.8 90 5.6 42.1
08:35 1008 29.77 837 24.72 7.2 45 90 5.7 42.2
08:40 1008 29.77 837 24.72 7.3 45.2 90 5.8 42.4
08:45 1008 29.77 837 24.72 7.4 45.3 89 5.8 42.4
08:50 1008 29.77 837 24.72 7.4 45.4 89 5.8 42.4
08:55 1008 29.77 837 24.72 7.5 45.5 89 5.7 42.3
09:00 1008 29.77 837 24.72 7.4 45.3 89 5.7 42.2
09:05 1008 29.77 837 24.72 7.3 45.1 89 5.7 42.2
09:10 1008 29.77 837 24.72 7.1 44.8 90 5.6 42.1
09:15 1008 29.77 837 24.72 7.1 44.8 90 5.6 42.1
09:20 1008 29.77 837 24.72 7.1 44.8 91 5.7 42.2
09:25 1008 29.77 837 24.72 7.1 44.8 91 5.7 42.2
09:30 1008 29.77 837 24.72 7.1 44.8 91 5.7 42.3
09:35 1008 29.77 837 24.72 7.1 44.8 91 5.7 42.2
09:40 1008 29.77 837 24.72 7.1 44.7 91 5.7 42.3
09:45 1008 29.77 837 24.72 7.1 44.7 92 5.8 42.4
09:50 1008 29.77 837 24.72 7.2 44.9 91 5.8 42.5
09:55 1008 29.77 837 24.72 7.1 44.7 91 5.7 42.2
10:00 1008 29.77 837 24.72 7.1 44.7 91 5.7 42.3
10:05 1008 29.77 837 24.72 7.1 44.8 91 5.8 42.4
10:10 1008 29.77 837 24.72 7.1 44.7 91 5.8 42.4
10:15 1008 29.77 837 24.72 7 44.6 91 5.6 42.2
10:20 1008 29.77 837 24.72 6.9 44.5 91 5.6 42.1
10:25 1008 29.77 837 24.72 6.8 44.2 91 5.4 41.8
10:30 1008 29.77 837 24.72 6.9 44.3 91 5.5 41.8
10:35 1008 29.77 837 24.72 7 44.5 91 5.6 42
10:40 1008 29.77 837 24.72 7.1 44.9 90 5.7 42.2
10:45 1007 29.74 837 24.72 7.1 44.7 90 5.6 42.1
10:50 1007 29.74 837 24.72 7.1 44.8 90 5.6 42
10:55 1007 29.74 837 24.72 7.1 44.8 90 5.5 41.9
11:00 1007 29.74 837 24.72 7.1 44.8 90 5.6 42
11:05 1007 29.74 837 24.72 7.2 45 91 5.8 42.4
11:10 1007 29.74 837 24.72 7.4 45.4 91 6 42.8
11:15 1007 29.74 837 24.72 7.6 45.6 90 6.1 43
11:20 1007 29.74 836 24.69 7.6 45.7 90 6.1 42.9
11:25 1007 29.74 837 24.72 7.5 45.6 90 6 42.8
11:30 1007 29.74 837 24.72 7.5 45.5 89 5.9 42.6
11:35 1007 29.74 837 24.72 7.5 45.5 90 5.9 42.6
11:40 1007 29.74 837 24.72 7.5 45.5 89 5.9 42.6
11:45 1007 29.74 837 24.72 7.6 45.7 89 6 42.8
11:50 1007 29.74 837 24.72 7.6 45.7 89 5.9 42.6
11:55 1007 29.74 837 24.72 7.6 45.7 89 5.9 42.6
12:00 1007 29.74 837 24.72 7.6 45.7 88 5.8 42.4
12:05 1007 29.74 837 24.72 7.6 45.7 89 5.9 42.7
12:10 1007 29.74 837 24.72 7.7 45.8 89 6 42.9
12:15 1007 29.74 837 24.72 7.6 45.6 88 5.8 42.4
12:20 1007 29.74 837 24.72 7.3 45.2 89 5.6 42.1
12:25 1007 29.74 837 24.72 7.1 44.7 89 5.3 41.6
12:30 1007 29.74 837 24.72 6.9 44.4 89 5.2 41.4
12:35 1007 29.74 837 24.72 6.8 44.3 89 5.1 41.3
12:40 1007 29.74 837 24.72 6.7 44.1 89 5.1 41.1
12:45 1007 29.74 837 24.72 6.7 44 90 5.1 41.1
12:50 1007 29.74 837 24.72 6.6 43.9 89 5 41
12:55 1008 29.77 837 24.72 6.5 43.7 90 5 41
13:00 1008 29.77 837 24.72 6.5 43.8 90 5.1 41.1
13:05 1008 29.77 837 24.72 6.5 43.7 90 4.9 40.9
13:10 1008 29.77 837 24.72 6.4 43.5 89 4.8 40.6
13:15 1008 29.77 837 24.72 6.3 43.4 90 4.8 40.6
13:20 1008 29.77 837 24.72 6.3 43.3 89 4.7 40.4
13:25 1008 29.77 837 24.72 6.2 43.2 89 4.6 40.3
13:30 1008 29.77 837 24.72 6.2 43.1 89 4.6 40.2
13:35 1008 29.77 837 24.72 6.2 43.1 90 4.6 40.3
13:40 1008 29.77 837 24.72 6.2 43.1 89 4.6 40.2
13:45 1008 29.77 837 24.72 6.1 43 90 4.5 40.1
13:50 1008 29.77 837 24.72 6 42.8 89 4.4 39.9
13:55 1008 29.77 837 24.72 5.9 42.7 90 4.5 40
14:00 1008 29.77 837 24.72 5.9 42.6 90 4.4 39.9
14:05 1008 29.77 837 24.72 5.9 42.6 90 4.3 39.8
14:10 1008 29.77 837 24.72 5.8 42.5 90 4.4 39.8
14:15 1008 29.77 837 24.72 5.8 42.4 90 4.3 39.8
14:20 1008 29.77 837 24.72 5.8 42.4 90 4.3 39.7
14:25 1008 29.77 837 24.72 5.8 42.4 90 4.2 39.6
14:30 1008 29.77 837 24.72 5.8 42.5 90 4.3 39.7
14:35 1008 29.77 837 24.72 5.8 42.5 90 4.4 39.8
14:40 1008 29.77 837 24.72 5.9 42.5 90 4.3 39.8
14:45 1008 29.77 837 24.72 5.8 42.5 90 4.3 39.8
14:50 1008 29.77 837 24.72 5.8 42.4 90 4.3 39.7
14:55 1008 29.77 838 24.75 5.8 42.4 90 4.2 39.6
15:00 1008 29.77 838 24.75 5.7 42.3 90 4.3 39.7
15:05 1008 29.77 838 24.75 5.7 42.3 90 4.3 39.7
15:10 1009 29.8 838 24.75 5.7 42.3 90 4.2 39.6
15:15 1009 29.8 838 24.75 5.7 42.3 90 4.2 39.6
15:20 1009 29.8 838 24.75 5.8 42.4 90 4.3 39.7
15:25 1009 29.8 838 24.75 5.7 42.3 90 4.2 39.6
15:30 1009 29.8 838 24.75 5.8 42.4 90 4.2 39.6
15:35 1009 29.8 838 24.75 5.7 42.2 90 4.1 39.5
15:40 1009 29.8 838 24.75 5.6 42 89 4 39.1
15:45 1009 29.8 838 24.75 5.5 41.8 89 3.9 39
15:50 1009 29.8 838 24.75 5.4 41.8 90 3.8 38.9
15:55 1009 29.8 838 24.75 5.4 41.8 89 3.7 38.7
16:00 1009 29.8 838 24.75 5.4 41.7 89 3.7 38.7
16:05 1009 29.8 838 24.75 5.4 41.7 89 3.7 38.7
16:10 1009 29.8 838 24.75 5.2 41.4 90 3.7 38.6
16:15 1009 29.8 838 24.75 5.2 41.3 90 3.7 38.6
16:20 1009 29.8 838 24.75 5.1 41.2 90 3.6 38.5
16:25 1009 29.8 838 24.75 5.2 41.3 90 3.7 38.6
16:30 1009 29.8 838 24.75 5.2 41.4 90 3.7 38.7
16:35 1009 29.8 838 24.75 5.2 41.4 90 3.8 38.8
16:40 1009 29.8 838 24.75 5.3 41.5 90 3.7 38.7
16:45 1009 29.8 838 24.75 5.3 41.5 90 3.7 38.7
16:50 1009 29.8 838 24.75 5.3 41.5 90 3.7 38.6
16:55 1009 29.8 838 24.75 5.3 41.5 90 3.8 38.8
17:00 1009 29.8 838 24.75 5.3 41.6 90 3.8 38.9
17:05 1009 29.8 838 24.75 5.3 41.6 90 3.9 39
17:10 1009 29.8 838 24.75 5.3 41.6 90 3.8 38.9
17:15 1009 29.8 838 24.75 5.4 41.6 91 3.9 39.1
17:20 1009 29.8 838 24.75 5.4 41.7 91 4 39.2
17:25 1009 29.8 838 24.75 5.4 41.7 91 4.1 39.3
17:30 1009 29.8 838 24.75 5.4 41.8 91 4.1 39.3
17:35 1009 29.8 838 24.75 5.4 41.8 91 4 39.3
17:40 1009 29.8 838 24.75 5.4 41.8 91 4 39.3
17:45 1009 29.8 839 24.78 5.5 41.9 91 4.1 39.3
17:50 1009 29.8 839 24.78 5.5 41.9 90 4 39.3
17:55 1009 29.8 839 24.78 5.5 42 90 4.1 39.4
18:00 1009 29.8 839 24.78 5.6 42 90 4.1 39.4
18:05 1010 29.83 839 24.78 5.5 42 90 4.1 39.4
18:10 1010 29.83 839 24.78 5.5 41.9 90 4 39.2
18:15 1010 29.83 839 24.78 5.4 41.7 90 3.9 39.1
18:20 1010 29.83 839 24.78 5.3 41.6 90 3.9 38.9
18:25 1010 29.83 839 24.78 5.3 41.6 90 3.8 38.9
18:30 1010 29.83 839 24.78 5.3 41.5 90 3.8 38.9
18:35 1010 29.83 839 24.78 5.3 41.5 90 3.8 38.8
18:40 1010 29.83 839 24.78 5.2 41.4 90 3.8 38.8
18:45 1010 29.83 839 24.78 5.2 41.4 90 3.7 38.7
18:50 1010 29.83 839 24.78 5.2 41.3 90 3.7 38.6
18:55 1010 29.83 839 24.78 5.2 41.3 90 3.7 38.6
19:00 1010 29.83 839 24.78 5.2 41.3 89 3.5 38.3
19:05 1010 29.83 839 24.78 5.1 41.3 89 3.5 38.3
19:10 1010 29.83 840 24.81 5.1 41.2 89 3.4 38.2
19:15 1010 29.83 840 24.81 5 41.1 89 3.4 38.1
19:20 1010 29.83 840 24.81 5 41 89 3.3 38
19:25 1010 29.83 840 24.81 4.9 40.9 89 3.3 38
19:30 1011 29.85 840 24.81 4.9 40.8 90 3.4 38
19:35 1011 29.85 840 24.81 4.9 40.8 90 3.4 38.1
19:40 1011 29.85 840 24.81 4.8 40.7 90 3.3 38
19:45 1011 29.85 840 24.81 4.8 40.7 90 3.3 37.9
19:50 1011 29.85 840 24.81 4.8 40.6 90 3.2 37.8
19:55 1011 29.85 840 24.81 4.8 40.6 89 3.2 37.7
20:00 1011 29.85 840 24.81 4.7 40.5 90 3.1 37.7
20:05 1011 29.85 840 24.81 4.7 40.4 90 3.2 37.7
20:10 1011 29.85 840 24.81 4.7 40.4 90 3.2 37.8
20:15 1011 29.85 840 24.81 4.7 40.4 91 3.2 37.8
20:20 1011 29.85 840 24.81 4.7 40.5 91 3.3 37.9
20:25 1011 29.85 840 24.81 4.6 40.3 91 3.3 37.9
20:30 1011 29.85 840 24.81 4.6 40.2 91 3.2 37.8
20:35 1011 29.85 840 24.81 4.5 40.2 91 3.2 37.7
20:40 1011 29.85 840 24.81 4.5 40.2 91 3.2 37.7
20:45 1011 29.85 840 24.81 4.5 40.1 91 3.2 37.8
20:50 1011 29.85 840 24.81 4.5 40.2 91 3.2 37.8
20:55 1011 29.85 840 24.81 4.5 40.1 91 3.1 37.6
21:00 1011 29.85 840 24.81 4.5 40 91 3.1 37.6
21:05 1011 29.85 840 24.81 4.4 39.9 91 3.1 37.6
21:10 1011 29.85 840 24.81 4.4 39.9 91 3 37.4
21:15 1011 29.85 840 24.81 4.4 39.9 89 2.8 37
21:20 1011 29.85 840 24.81 4.4 40 89 2.8 37
21:25 1011 29.85 840 24.81 4.4 40 90 2.9 37.2
21:30 1011 29.85 840 24.81 4.4 40 90 2.9 37.1
21:35 1011 29.85 840 24.81 4.4 40 89 2.8 37
21:40 1011 29.85 840 24.81 4.5 40 88 2.7 36.8
21:45 1011 29.85 840 24.81 4.5 40 88 2.7 36.9
21:50 1011 29.85 841 24.83 4.4 40 88 2.6 36.6
21:55 1011 29.85 841 24.83 4.4 40 88 2.6 36.7
22:00 1011 29.85 841 24.83 4.4 39.9 88 2.6 36.7
22:05 1011 29.85 841 24.83 4.4 39.9 89 2.7 36.8
22:10 1011 29.85 841 24.83 4.4 39.9 90 2.8 37
22:15 1011 29.85 841 24.83 4.3 39.8 90 2.8 37.1
22:20 1011 29.85 841 24.83 4.3 39.8 90 2.8 37.1
22:25 1011 29.85 841 24.83 4.3 39.8 89 2.7 36.9
22:30 1011 29.85 841 24.83 4.4 39.9 89 2.7 36.8
22:35 1011 29.85 841 24.83 4.4 39.8 87 2.4 36.2
22:40 1011 29.85 841 24.83 4.4 39.9 87 2.3 36.2
22:45 1011 29.85 841 24.83 4.4 39.8 87 2.4 36.4
22:50 1012 29.88 841 24.83 4.3 39.8 88 2.5 36.5
22:55 1012 29.88 841 24.83 4.3 39.7 89 2.6 36.7
23:00 1012 29.88 841 24.83 4.3 39.7 88 2.5 36.6
23:05 1012 29.88 841 24.83 4.4 40 88 2.6 36.7
23:10 1012 29.88 841 24.83 4.5 40 89 2.7 36.9
23:15 1012 29.88 841 24.83 4.4 40 89 2.7 36.9
23:20 1012 29.88 841 24.83 4.4 39.9 87 2.5 36.5
23:25 1012 29.88 841 24.83 4.3 39.8 87 2.4 36.2
23:30 1011 29.85 841 24.83 4.3 39.8 88 2.5 36.4
23:35 1011 29.85 841 24.83 4.3 39.7 88 2.4 36.3
23:40 1011 29.85 841 24.83 4.3 39.7 88 2.4 36.4
23:45 1011 29.85 841 24.83 4.3 39.7 87 2.4 36.2
23:50 1011 29.85 841 24.83 4.2 39.6 88 2.4 36.2
23:55 1011 29.85 841 24.83 4.2 39.6 88 2.4 36.3
24:00 1011 29.85 841 24.83 4.2 39.6 88 2.5 36.4